Terminal Aerodrome Forecast
Issued by NWS Cleveland, OH

Home | Current Version | Previous Version | Graphics & Text | Print | Product List | Glossary On
Versions: 1 2 3 4 5 6 7 8 9 10 11 12 13 14 15 16 17
000
FTUS41 KCLE 221121
TAFCAK
TAF
KCAK 221121Z 2212/2312 32010KT P6SM BKN035
      TEMPO 2212/2215 -SHSN OVC020
     FM222100 32010KT P6SM SCT035
     FM230000 VRB05KT P6SM SCT250
     FM231100 22005KT P6SM OVC150=

USA.gov is the U.S. government's official web portal to all federal, state and local government web resources and services.